SIA177 VVTS-WSSS
Flight info
| Callsign | SIA177 |
|---|---|
| Flight time | 1h 28m |
| Altitude | 40000 |
| Route | NIXIV L643 CN L642 ESPOB/N0486F400 Q801 ESBUM/N0488F390 Q802 ELALO |
| Aircraft | A359/H-SDE1E2E3GHIJ1J2J3J5M1P2RWXYZ/LB1D1 |
Departure
| Time | 2026-05-08 00:47 |
|---|---|
| Airport | Tan Son Nhat International Airport (VVTS) |
Arrival
| Time | 2026-05-08 02:15 |
|---|---|
| Airport | Singapore Changi Airport (WSSS) |
| Time | Latitude | Longitude | Altitude | Speed | Heading |
|---|---|---|---|---|---|
| 2026-05-08 00:28 | 10.81807 | 106.66502 | 43 ft | 0 kts | 160° |
| 2026-05-08 00:38 | 10.81810 | 106.66501 | 43 ft | 3 kts | 160° |
| 2026-05-08 00:38 | 10.81835 | 106.66491 | 40 ft | 4 kts | 160° |
| 2026-05-08 00:38 | 10.81857 | 106.66483 | 40 ft | 3 kts | 159° |
| 2026-05-08 00:38 | 10.81879 | 106.66470 | 38 ft | 4 kts | 129° |
| 2026-05-08 00:39 | 10.81888 | 106.66447 | 39 ft | 4 kts | 81° |
| 2026-05-08 00:39 | 10.81880 | 106.66422 | 41 ft | 4 kts | 66° |
| 2026-05-08 00:39 | 10.81876 | 106.66413 | 40 ft | 0 kts | 69° |
| 2026-05-08 00:43 | 10.81876 | 106.66414 | 40 ft | 1 kts | 69° |
| 2026-05-08 00:43 | 10.81886 | 106.66439 | 43 ft | 4 kts | 69° |
| 2026-05-08 00:43 | 10.81900 | 106.66477 | 43 ft | 7 kts | 69° |
| 2026-05-08 00:43 | 10.81922 | 106.66534 | 43 ft | 10 kts | 69° |
| 2026-05-08 00:44 | 10.81949 | 106.66607 | 43 ft | 12 kts | 69° |
| 2026-05-08 00:44 | 10.81983 | 106.66696 | 43 ft | 14 kts | 69° |
| 2026-05-08 00:44 | 10.82021 | 106.66798 | 43 ft | 16 kts | 69° |
| 2026-05-08 00:44 | 10.82079 | 106.66901 | 41 ft | 16 kts | 43° |
| 2026-05-08 00:45 | 10.82171 | 106.66979 | 41 ft | 18 kts | 39° |
| 2026-05-08 00:45 | 10.82241 | 106.67010 | 42 ft | 11 kts | 355° |
| 2026-05-08 00:45 | 10.82320 | 106.66972 | 41 ft | 14 kts | 315° |
| 2026-05-08 00:45 | 10.82344 | 106.66889 | 41 ft | 10 kts | 263° |
| 2026-05-08 00:46 | 10.82322 | 106.66825 | 40 ft | 7 kts | 249° |
| 2026-05-08 00:46 | 10.82260 | 106.66663 | 39 ft | 57 kts | 249° |
| 2026-05-08 00:46 | 10.82031 | 106.66054 | 45 ft | 125 kts | 249° |
| 2026-05-08 00:46 | 10.81648 | 106.65039 | 94 ft | 176 kts | 247° |
| 2026-05-08 00:47 | 10.81241 | 106.63905 | 888 ft | 171 kts | 248° |
| 2026-05-08 00:47 | 10.80787 | 106.62707 | 1255 ft | 191 kts | 247° |
| 2026-05-08 00:47 | 10.80269 | 106.61375 | 1464 ft | 214 kts | 247° |
| 2026-05-08 00:47 | 10.79693 | 106.59880 | 1671 ft | 239 kts | 246° |
| 2026-05-08 00:48 | 10.79061 | 106.58236 | 1924 ft | 260 kts | 248° |
| 2026-05-08 00:48 | 10.78402 | 106.56505 | 2374 ft | 270 kts | 248° |
| 2026-05-08 00:48 | 10.77470 | 106.54842 | 2926 ft | 272 kts | 225° |
| 2026-05-08 00:48 | 10.75889 | 106.53884 | 3568 ft | 266 kts | 191° |
| 2026-05-08 00:49 | 10.74052 | 106.53857 | 4090 ft | 267 kts | 168° |
| 2026-05-08 00:49 | 10.72203 | 106.54169 | 4662 ft | 271 kts | 167° |
| 2026-05-08 00:49 | 10.70340 | 106.54498 | 5265 ft | 273 kts | 168° |
| 2026-05-08 00:49 | 10.68458 | 106.54817 | 5848 ft | 275 kts | 168° |
| 2026-05-08 00:50 | 10.66560 | 106.55127 | 6432 ft | 277 kts | 168° |
| 2026-05-08 00:50 | 10.64648 | 106.55435 | 6994 ft | 280 kts | 168° |
| 2026-05-08 00:50 | 10.62712 | 106.55742 | 7509 ft | 284 kts | 168° |
| 2026-05-08 00:50 | 10.60752 | 106.56051 | 8053 ft | 286 kts | 168° |
| 2026-05-08 00:51 | 10.58779 | 106.56359 | 8594 ft | 289 kts | 168° |
| 2026-05-08 00:51 | 10.56783 | 106.56673 | 9132 ft | 292 kts | 168° |
| 2026-05-08 00:51 | 10.54764 | 106.56991 | 9691 ft | 295 kts | 168° |
| 2026-05-08 00:51 | 10.52720 | 106.57311 | 10118 ft | 301 kts | 168° |
| 2026-05-08 00:52 | 10.50602 | 106.57646 | 10348 ft | 315 kts | 169° |
| 2026-05-08 00:52 | 10.48394 | 106.57996 | 10546 ft | 328 kts | 168° |
| 2026-05-08 00:52 | 10.46098 | 106.58362 | 10733 ft | 340 kts | 169° |
| 2026-05-08 00:52 | 10.43717 | 106.58731 | 10911 ft | 352 kts | 168° |
| 2026-05-08 00:53 | 10.41266 | 106.59109 | 11138 ft | 360 kts | 168° |
| 2026-05-08 00:53 | 10.38771 | 106.59504 | 11462 ft | 365 kts | 168° |
| 2026-05-08 00:53 | 10.36249 | 106.59894 | 11833 ft | 368 kts | 168° |
| 2026-05-08 00:53 | 10.33710 | 106.60284 | 12240 ft | 370 kts | 168° |
| 2026-05-08 00:54 | 10.31156 | 106.60678 | 12642 ft | 372 kts | 168° |
| 2026-05-08 00:54 | 10.28584 | 106.61078 | 12996 ft | 376 kts | 169° |
| 2026-05-08 00:54 | 10.25993 | 106.61481 | 13378 ft | 378 kts | 169° |
| 2026-05-08 00:54 | 10.23390 | 106.61883 | 13746 ft | 379 kts | 168° |
| 2026-05-08 00:55 | 10.20790 | 106.62360 | 14066 ft | 380 kts | 163° |
| 2026-05-08 00:55 | 10.18232 | 106.63038 | 14415 ft | 380 kts | 161° |
| 2026-05-08 00:55 | 10.15678 | 106.63771 | 14717 ft | 383 kts | 162° |
| 2026-05-08 00:55 | 10.13071 | 106.64209 | 15023 ft | 388 kts | 174° |
| 2026-05-08 00:56 | 10.10361 | 106.64247 | 15377 ft | 390 kts | 179° |
| 2026-05-08 00:56 | 10.07641 | 106.64207 | 15716 ft | 392 kts | 179° |
| 2026-05-08 00:56 | 10.04908 | 106.64162 | 16041 ft | 394 kts | 178° |
| 2026-05-08 00:56 | 10.02161 | 106.64124 | 16369 ft | 396 kts | 179° |
| 2026-05-08 00:57 | 9.99401 | 106.64088 | 16717 ft | 397 kts | 178° |
| 2026-05-08 00:57 | 9.96633 | 106.64053 | 17045 ft | 399 kts | 179° |
| 2026-05-08 00:57 | 9.93852 | 106.64019 | 17377 ft | 400 kts | 178° |
| 2026-05-08 00:57 | 9.91058 | 106.63988 | 17703 ft | 402 kts | 179° |
| 2026-05-08 00:58 | 9.88253 | 106.63954 | 18039 ft | 404 kts | 179° |
| 2026-05-08 00:58 | 9.85434 | 106.63922 | 18305 ft | 406 kts | 178° |
| 2026-05-08 00:58 | 9.82607 | 106.63890 | 18571 ft | 408 kts | 179° |
| 2026-05-08 00:58 | 9.79764 | 106.63855 | 18857 ft | 409 kts | 178° |
| 2026-05-08 00:59 | 9.76920 | 106.63822 | 19121 ft | 410 kts | 179° |
| 2026-05-08 00:59 | 9.74058 | 106.63788 | 19376 ft | 412 kts | 178° |
| 2026-05-08 00:59 | 9.71188 | 106.63754 | 19683 ft | 412 kts | 178° |
| 2026-05-08 00:59 | 9.68314 | 106.63722 | 19944 ft | 414 kts | 178° |
| 2026-05-08 01:00 | 9.65424 | 106.63689 | 20193 ft | 416 kts | 178° |
| 2026-05-08 01:00 | 9.62530 | 106.63658 | 20477 ft | 417 kts | 179° |
| 2026-05-08 01:00 | 9.59620 | 106.63625 | 20708 ft | 419 kts | 179° |
| 2026-05-08 01:00 | 9.56702 | 106.63590 | 20982 ft | 420 kts | 179° |
| 2026-05-08 01:01 | 9.53775 | 106.63556 | 21283 ft | 420 kts | 179° |
| 2026-05-08 01:01 | 9.50845 | 106.63521 | 21521 ft | 422 kts | 179° |
| 2026-05-08 01:01 | 9.47905 | 106.63487 | 21801 ft | 423 kts | 179° |
| 2026-05-08 01:01 | 9.44960 | 106.63454 | 22076 ft | 424 kts | 179° |
| 2026-05-08 01:02 | 9.42039 | 106.63421 | 22251 ft | 427 kts | 179° |
| 2026-05-08 01:02 | 9.39071 | 106.63388 | 22531 ft | 427 kts | 180° |
| 2026-05-08 01:02 | 9.36088 | 106.63362 | 22700 ft | 431 kts | 180° |
| 2026-05-08 01:02 | 9.33088 | 106.63328 | 22981 ft | 431 kts | 179° |
| 2026-05-08 01:03 | 9.30092 | 106.63291 | 23274 ft | 431 kts | 180° |
| 2026-05-08 01:03 | 9.27086 | 106.63252 | 23474 ft | 432 kts | 179° |
| 2026-05-08 01:03 | 9.24078 | 106.63216 | 23679 ft | 433 kts | 179° |
| 2026-05-08 01:03 | 9.21058 | 106.63181 | 23822 ft | 436 kts | 180° |
| 2026-05-08 01:04 | 9.18019 | 106.63146 | 24023 ft | 437 kts | 179° |
| 2026-05-08 01:04 | 9.14970 | 106.63111 | 24178 ft | 439 kts | 180° |
| 2026-05-08 01:04 | 9.11908 | 106.63077 | 24315 ft | 442 kts | 180° |
| 2026-05-08 01:04 | 9.08839 | 106.63043 | 24578 ft | 440 kts | 180° |
| 2026-05-08 01:05 | 9.05765 | 106.63008 | 24718 ft | 443 kts | 179° |
| 2026-05-08 01:05 | 9.02684 | 106.62973 | 24953 ft | 443 kts | 179° |
| 2026-05-08 01:05 | 8.99597 | 106.62938 | 25115 ft | 445 kts | 180° |
| 2026-05-08 01:05 | 8.96490 | 106.62904 | 25258 ft | 447 kts | 180° |
| 2026-05-08 01:06 | 8.93371 | 106.62870 | 25435 ft | 449 kts | 180° |
| 2026-05-08 01:06 | 8.90248 | 106.62834 | 25627 ft | 450 kts | 180° |
| 2026-05-08 01:06 | 8.87109 | 106.62799 | 25837 ft | 451 kts | 180° |
| 2026-05-08 01:06 | 8.83967 | 106.62764 | 26011 ft | 452 kts | 180° |
| 2026-05-08 01:07 | 8.80815 | 106.62728 | 26226 ft | 453 kts | 180° |
| 2026-05-08 01:07 | 8.77661 | 106.62645 | 26392 ft | 455 kts | 184° |
| 2026-05-08 01:07 | 8.74517 | 106.62185 | 26557 ft | 458 kts | 192° |
| 2026-05-08 01:07 | 8.71470 | 106.61212 | 26723 ft | 461 kts | 202° |
| 2026-05-08 01:08 | 8.68594 | 106.59761 | 26905 ft | 464 kts | 208° |
| 2026-05-08 01:08 | 8.65792 | 106.58130 | 27101 ft | 466 kts | 210° |
| 2026-05-08 01:08 | 8.63025 | 106.56419 | 27310 ft | 467 kts | 211° |
| 2026-05-08 01:08 | 8.60270 | 106.54673 | 27515 ft | 468 kts | 211° |
| 2026-05-08 01:09 | 8.57511 | 106.52918 | 27689 ft | 470 kts | 211° |
| 2026-05-08 01:09 | 8.54735 | 106.51160 | 27909 ft | 471 kts | 211° |
| 2026-05-08 01:09 | 8.51946 | 106.49408 | 28123 ft | 473 kts | 211° |
| 2026-05-08 01:09 | 8.49146 | 106.47659 | 28301 ft | 474 kts | 211° |
| 2026-05-08 01:10 | 8.46328 | 106.45907 | 28519 ft | 476 kts | 211° |
| 2026-05-08 01:10 | 8.43542 | 106.44179 | 28712 ft | 477 kts | 211° |
| 2026-05-08 01:10 | 8.40707 | 106.42422 | 28911 ft | 479 kts | 211° |
| 2026-05-08 01:10 | 8.37865 | 106.40660 | 29088 ft | 480 kts | 211° |
| 2026-05-08 01:11 | 8.35012 | 106.38893 | 29295 ft | 482 kts | 211° |
| 2026-05-08 01:11 | 8.32149 | 106.37118 | 29505 ft | 483 kts | 211° |
| 2026-05-08 01:11 | 8.29278 | 106.35339 | 29697 ft | 485 kts | 211° |
| 2026-05-08 01:11 | 8.26397 | 106.33554 | 29886 ft | 487 kts | 211° |
| 2026-05-08 01:12 | 8.23506 | 106.31762 | 30076 ft | 488 kts | 211° |
| 2026-05-08 01:12 | 8.20608 | 106.29967 | 30265 ft | 489 kts | 211° |
| 2026-05-08 01:12 | 8.17705 | 106.28169 | 30454 ft | 490 kts | 211° |
| 2026-05-08 01:12 | 8.14796 | 106.26368 | 30678 ft | 491 kts | 211° |
| 2026-05-08 01:13 | 8.11881 | 106.24562 | 30871 ft | 492 kts | 211° |
| 2026-05-08 01:13 | 8.08956 | 106.22751 | 31074 ft | 493 kts | 211° |
| 2026-05-08 01:13 | 8.06025 | 106.20937 | 31276 ft | 494 kts | 211° |
| 2026-05-08 01:13 | 8.03092 | 106.19122 | 31467 ft | 496 kts | 211° |
| 2026-05-08 01:14 | 8.00149 | 106.17300 | 31658 ft | 497 kts | 211° |
| 2026-05-08 01:14 | 7.95242 | 106.14265 | 31938 ft | 499 kts | 211° |
| 2026-05-08 01:14 | 7.92282 | 106.12434 | 32107 ft | 500 kts | 211° |
| 2026-05-08 01:15 | 7.88311 | 106.09979 | 32351 ft | 501 kts | 211° |
| 2026-05-08 01:15 | 7.85336 | 106.08139 | 32521 ft | 502 kts | 211° |
| 2026-05-08 01:15 | 7.83363 | 106.06919 | 32631 ft | 503 kts | 211° |
| 2026-05-08 01:15 | 7.80377 | 106.05074 | 32785 ft | 504 kts | 211° |
| 2026-05-08 01:16 | 7.77385 | 106.03225 | 32949 ft | 505 kts | 211° |
| 2026-05-08 01:16 | 7.74387 | 106.01372 | 33108 ft | 506 kts | 211° |
| 2026-05-08 01:16 | 7.71383 | 105.99517 | 33264 ft | 507 kts | 211° |
| 2026-05-08 01:16 | 7.68376 | 105.97660 | 33407 ft | 508 kts | 211° |
| 2026-05-08 01:17 | 7.65365 | 105.95800 | 33643 ft | 507 kts | 211° |
| 2026-05-08 01:17 | 7.62362 | 105.93946 | 33894 ft | 506 kts | 211° |
| 2026-05-08 01:17 | 7.59363 | 105.92094 | 34107 ft | 505 kts | 211° |
| 2026-05-08 01:17 | 7.56366 | 105.90244 | 34318 ft | 505 kts | 211° |
| 2026-05-08 01:18 | 7.53372 | 105.88396 | 34549 ft | 504 kts | 211° |
| 2026-05-08 01:18 | 7.50385 | 105.86553 | 34769 ft | 504 kts | 211° |
| 2026-05-08 01:18 | 7.47398 | 105.84710 | 35014 ft | 503 kts | 211° |
| 2026-05-08 01:18 | 7.44419 | 105.82872 | 35265 ft | 502 kts | 211° |
| 2026-05-08 01:19 | 7.41438 | 105.81034 | 35497 ft | 502 kts | 211° |
| 2026-05-08 01:19 | 7.38465 | 105.79200 | 35744 ft | 501 kts | 211° |
| 2026-05-08 01:19 | 7.35533 | 105.77392 | 35995 ft | 501 kts | 211° |
| 2026-05-08 01:19 | 7.32565 | 105.75563 | 36237 ft | 500 kts | 211° |
| 2026-05-08 01:20 | 7.29598 | 105.73734 | 36494 ft | 499 kts | 211° |
| 2026-05-08 01:20 | 7.26640 | 105.71911 | 36762 ft | 498 kts | 211° |
| 2026-05-08 01:20 | 7.23680 | 105.70087 | 37022 ft | 498 kts | 211° |
| 2026-05-08 01:20 | 7.20727 | 105.68268 | 37274 ft | 497 kts | 211° |
| 2026-05-08 01:21 | 7.17778 | 105.66452 | 37534 ft | 497 kts | 211° |
| 2026-05-08 01:21 | 7.14833 | 105.64638 | 37784 ft | 496 kts | 211° |
| 2026-05-08 01:21 | 7.11890 | 105.62825 | 37982 ft | 497 kts | 211° |
| 2026-05-08 01:21 | 7.08938 | 105.61008 | 38143 ft | 498 kts | 211° |
| 2026-05-08 01:22 | 7.05988 | 105.59192 | 38415 ft | 497 kts | 211° |
| 2026-05-08 01:22 | 7.03043 | 105.57379 | 38628 ft | 496 kts | 211° |
| 2026-05-08 01:22 | 7.00096 | 105.55567 | 38818 ft | 496 kts | 211° |
| 2026-05-08 01:22 | 6.97122 | 105.53820 | 39034 ft | 495 kts | 208° |
| 2026-05-08 01:23 | 6.94068 | 105.52227 | 39206 ft | 494 kts | 205° |
| 2026-05-08 01:23 | 6.90974 | 105.50706 | 39336 ft | 495 kts | 205° |
| 2026-05-08 01:23 | 6.87873 | 105.49204 | 39529 ft | 494 kts | 205° |
| 2026-05-08 01:23 | 6.84782 | 105.47695 | 39731 ft | 493 kts | 205° |
| 2026-05-08 01:24 | 6.81702 | 105.46170 | 39816 ft | 494 kts | 205° |
| 2026-05-08 01:24 | 6.75571 | 105.43083 | 39824 ft | 492 kts | 206° |
| 2026-05-08 01:25 | 6.69456 | 105.39971 | 39822 ft | 492 kts | 206° |
| 2026-05-08 01:25 | 6.63347 | 105.36859 | 39821 ft | 493 kts | 206° |
| 2026-05-08 01:26 | 6.57227 | 105.33746 | 39820 ft | 493 kts | 205° |
| 2026-05-08 01:26 | 6.51106 | 105.30634 | 39820 ft | 493 kts | 205° |
| 2026-05-08 01:27 | 6.44982 | 105.27524 | 39821 ft | 494 kts | 206° |
| 2026-05-08 01:27 | 6.38836 | 105.24403 | 39819 ft | 495 kts | 206° |
| 2026-05-08 01:28 | 6.32681 | 105.21278 | 39818 ft | 496 kts | 206° |
| 2026-05-08 01:28 | 6.26522 | 105.18151 | 39818 ft | 496 kts | 205° |
| 2026-05-08 01:29 | 6.20368 | 105.15028 | 39820 ft | 495 kts | 206° |
| 2026-05-08 01:29 | 6.14222 | 105.11910 | 39821 ft | 494 kts | 206° |
| 2026-05-08 01:30 | 6.08087 | 105.08798 | 39820 ft | 494 kts | 206° |
| 2026-05-08 01:30 | 6.01946 | 105.05684 | 39821 ft | 494 kts | 206° |
| 2026-05-08 01:31 | 5.95812 | 105.02574 | 39819 ft | 494 kts | 206° |
| 2026-05-08 01:31 | 5.89714 | 104.99484 | 39818 ft | 494 kts | 206° |
| 2026-05-08 01:32 | 5.83582 | 104.96376 | 39817 ft | 493 kts | 205° |
| 2026-05-08 01:32 | 5.77472 | 104.93281 | 39818 ft | 492 kts | 205° |
| 2026-05-08 01:33 | 5.71355 | 104.90184 | 39819 ft | 494 kts | 206° |
| 2026-05-08 01:33 | 5.65207 | 104.87071 | 39817 ft | 495 kts | 206° |
| 2026-05-08 01:34 | 5.59052 | 104.83955 | 39817 ft | 495 kts | 206° |
| 2026-05-08 01:34 | 5.52895 | 104.80839 | 39818 ft | 495 kts | 206° |
| 2026-05-08 01:35 | 5.46751 | 104.77730 | 39818 ft | 494 kts | 205° |
| 2026-05-08 01:35 | 5.40622 | 104.74629 | 39818 ft | 493 kts | 205° |
| 2026-05-08 01:36 | 5.34498 | 104.71532 | 39818 ft | 493 kts | 205° |
| 2026-05-08 01:36 | 5.28375 | 104.68436 | 39818 ft | 493 kts | 205° |
| 2026-05-08 01:37 | 5.22249 | 104.65340 | 39815 ft | 493 kts | 205° |
| 2026-05-08 01:37 | 5.16126 | 104.62245 | 39815 ft | 493 kts | 205° |
| 2026-05-08 01:38 | 5.10009 | 104.59154 | 39815 ft | 492 kts | 205° |
| 2026-05-08 01:38 | 5.03898 | 104.56067 | 39817 ft | 491 kts | 205° |
| 2026-05-08 01:39 | 4.97834 | 104.53005 | 39819 ft | 491 kts | 205° |
| 2026-05-08 01:39 | 4.91701 | 104.49985 | 39815 ft | 490 kts | 201° |
| 2026-05-08 01:40 | 4.85152 | 104.48275 | 39817 ft | 486 kts | 184° |
| 2026-05-08 01:40 | 4.78442 | 104.48553 | 39815 ft | 483 kts | 171° |
| 2026-05-08 01:41 | 4.71785 | 104.49399 | 39820 ft | 482 kts | 171° |
| 2026-05-08 01:41 | 4.65146 | 104.50246 | 39820 ft | 481 kts | 171° |
| 2026-05-08 01:42 | 4.58497 | 104.51087 | 39815 ft | 481 kts | 171° |
| 2026-05-08 01:42 | 4.51853 | 104.51927 | 39816 ft | 481 kts | 171° |
| 2026-05-08 01:43 | 4.46683 | 104.52579 | 39814 ft | 481 kts | 171° |
| 2026-05-08 01:43 | 4.40543 | 104.53354 | 39815 ft | 481 kts | 171° |
| 2026-05-08 01:44 | 4.33921 | 104.54188 | 39812 ft | 479 kts | 171° |
| 2026-05-08 01:44 | 4.27304 | 104.55023 | 39812 ft | 479 kts | 171° |
| 2026-05-08 01:45 | 4.20691 | 104.55857 | 39815 ft | 479 kts | 171° |
| 2026-05-08 01:45 | 4.14055 | 104.56533 | 39815 ft | 479 kts | 173° |
| 2026-05-08 01:46 | 4.07412 | 104.57158 | 39812 ft | 479 kts | 173° |
| 2026-05-08 01:46 | 4.00770 | 104.57799 | 39812 ft | 479 kts | 173° |
| 2026-05-08 01:47 | 3.94132 | 104.58447 | 39812 ft | 479 kts | 173° |
| 2026-05-08 01:47 | 3.87491 | 104.59096 | 39812 ft | 479 kts | 173° |
| 2026-05-08 01:48 | 3.77530 | 104.60071 | 39812 ft | 479 kts | 173° |
| 2026-05-08 01:48 | 3.70889 | 104.60724 | 39813 ft | 479 kts | 173° |
| 2026-05-08 01:49 | 3.64249 | 104.61375 | 39813 ft | 479 kts | 173° |
| 2026-05-08 01:49 | 3.57611 | 104.62026 | 39813 ft | 479 kts | 173° |
| 2026-05-08 01:50 | 3.50970 | 104.62677 | 39812 ft | 479 kts | 173° |
| 2026-05-08 01:50 | 3.44331 | 104.63329 | 39813 ft | 479 kts | 173° |
| 2026-05-08 01:51 | 3.37694 | 104.63980 | 39812 ft | 479 kts | 173° |
| 2026-05-08 01:51 | 3.31054 | 104.64632 | 39811 ft | 480 kts | 173° |
| 2026-05-08 01:52 | 3.24375 | 104.65287 | 39812 ft | 484 kts | 173° |
| 2026-05-08 01:52 | 3.17704 | 104.65942 | 39810 ft | 485 kts | 173° |
| 2026-05-08 01:53 | 3.10938 | 104.66596 | 39807 ft | 486 kts | 174° |
| 2026-05-08 01:53 | 3.07558 | 104.66564 | 39809 ft | 487 kts | 186° |
| 2026-05-08 01:53 | 3.04267 | 104.65764 | 39814 ft | 489 kts | 200° |
| 2026-05-08 01:54 | 3.01265 | 104.64173 | 39813 ft | 491 kts | 214° |
| 2026-05-08 01:54 | 2.98698 | 104.61916 | 39815 ft | 493 kts | 225° |
| 2026-05-08 01:54 | 2.96351 | 104.59437 | 39489 ft | 489 kts | 226° |
| 2026-05-08 01:54 | 2.94035 | 104.56933 | 38731 ft | 492 kts | 226° |
| 2026-05-08 01:55 | 2.91709 | 104.54420 | 37695 ft | 491 kts | 226° |
| 2026-05-08 01:55 | 2.89381 | 104.51915 | 36289 ft | 493 kts | 225° |
| 2026-05-08 01:55 | 2.87064 | 104.49431 | 34879 ft | 497 kts | 225° |
| 2026-05-08 01:55 | 2.84698 | 104.46897 | 33405 ft | 501 kts | 225° |
| 2026-05-08 01:56 | 2.82308 | 104.44342 | 31758 ft | 504 kts | 225° |
| 2026-05-08 01:56 | 2.79903 | 104.41773 | 30131 ft | 508 kts | 226° |
| 2026-05-08 01:56 | 2.77476 | 104.39180 | 28340 ft | 511 kts | 226° |
| 2026-05-08 01:56 | 2.75051 | 104.36587 | 26740 ft | 509 kts | 226° |
| 2026-05-08 01:57 | 2.72644 | 104.34013 | 25296 ft | 504 kts | 226° |
| 2026-05-08 01:57 | 2.70259 | 104.31465 | 23987 ft | 500 kts | 226° |
| 2026-05-08 01:57 | 2.67869 | 104.28911 | 23122 ft | 502 kts | 226° |
| 2026-05-08 01:57 | 2.65512 | 104.26393 | 22616 ft | 491 kts | 226° |
| 2026-05-08 01:58 | 2.63187 | 104.23909 | 21900 ft | 486 kts | 226° |
| 2026-05-08 01:58 | 2.60893 | 104.21459 | 21165 ft | 481 kts | 226° |
| 2026-05-08 01:58 | 2.58612 | 104.19024 | 20390 ft | 478 kts | 226° |
| 2026-05-08 01:58 | 2.56355 | 104.16614 | 19768 ft | 472 kts | 226° |
| 2026-05-08 01:59 | 2.54124 | 104.14233 | 19114 ft | 467 kts | 226° |
| 2026-05-08 01:59 | 2.51722 | 104.12082 | 18430 ft | 461 kts | 213° |
| 2026-05-08 01:59 | 2.48885 | 104.10664 | 17714 ft | 454 kts | 197° |
| 2026-05-08 01:59 | 2.45817 | 104.10116 | 16972 ft | 445 kts | 180° |
| 2026-05-08 02:00 | 2.42741 | 104.10176 | 16274 ft | 439 kts | 176° |
| 2026-05-08 02:00 | 2.39704 | 104.10302 | 15589 ft | 434 kts | 176° |
| 2026-05-08 02:00 | 2.36706 | 104.10387 | 14944 ft | 429 kts | 177° |
| 2026-05-08 02:00 | 2.33743 | 104.10437 | 14321 ft | 423 kts | 178° |
| 2026-05-08 02:01 | 2.31803 | 104.10457 | 13903 ft | 419 kts | 178° |
| 2026-05-08 02:01 | 2.28906 | 104.10476 | 13252 ft | 414 kts | 178° |
| 2026-05-08 02:01 | 2.26047 | 104.10486 | 12615 ft | 408 kts | 178° |
| 2026-05-08 02:01 | 2.22301 | 104.10493 | 11872 ft | 397 kts | 178° |
| 2026-05-08 02:02 | 2.19573 | 104.10496 | 11504 ft | 384 kts | 179° |
| 2026-05-08 02:02 | 2.17835 | 104.10496 | 11430 ft | 372 kts | 178° |
| 2026-05-08 02:02 | 2.15313 | 104.10496 | 11327 ft | 354 kts | 178° |
| 2026-05-08 02:02 | 2.12911 | 104.10496 | 11201 ft | 337 kts | 178° |
| 2026-05-08 02:03 | 2.10614 | 104.10496 | 11078 ft | 323 kts | 178° |
| 2026-05-08 02:03 | 2.08412 | 104.10496 | 10936 ft | 310 kts | 178° |
| 2026-05-08 02:03 | 2.06294 | 104.10497 | 10722 ft | 300 kts | 178° |
| 2026-05-08 02:03 | 2.04219 | 104.10498 | 10373 ft | 297 kts | 178° |
| 2026-05-08 02:04 | 2.02167 | 104.10499 | 10044 ft | 293 kts | 178° |
| 2026-05-08 02:04 | 2.00144 | 104.10499 | 9727 ft | 290 kts | 178° |
| 2026-05-08 02:04 | 1.98110 | 104.10501 | 9372 ft | 294 kts | 178° |
| 2026-05-08 02:04 | 1.96065 | 104.10511 | 9013 ft | 293 kts | 178° |
| 2026-05-08 02:05 | 1.94038 | 104.10521 | 8684 ft | 291 kts | 178° |
| 2026-05-08 02:05 | 1.92019 | 104.10531 | 8357 ft | 289 kts | 178° |
| 2026-05-08 02:05 | 1.90014 | 104.10536 | 8087 ft | 286 kts | 179° |
| 2026-05-08 02:05 | 1.88017 | 104.10349 | 8009 ft | 288 kts | 187° |
| 2026-05-08 02:06 | 1.86041 | 104.10061 | 7587 ft | 287 kts | 187° |
| 2026-05-08 02:06 | 1.84066 | 104.09748 | 7145 ft | 287 kts | 188° |
| 2026-05-08 02:06 | 1.82112 | 104.09427 | 6804 ft | 282 kts | 188° |
| 2026-05-08 02:06 | 1.80185 | 104.09105 | 6488 ft | 279 kts | 188° |
| 2026-05-08 02:07 | 1.78277 | 104.08783 | 6168 ft | 277 kts | 189° |
| 2026-05-08 02:07 | 1.76379 | 104.08461 | 5845 ft | 276 kts | 189° |
| 2026-05-08 02:07 | 1.74494 | 104.08140 | 5534 ft | 274 kts | 189° |
| 2026-05-08 02:07 | 1.72617 | 104.07821 | 5227 ft | 273 kts | 189° |
| 2026-05-08 02:08 | 1.70752 | 104.07502 | 4927 ft | 271 kts | 189° |
| 2026-05-08 02:08 | 1.68895 | 104.07185 | 4619 ft | 270 kts | 189° |
| 2026-05-08 02:08 | 1.67041 | 104.06868 | 4306 ft | 270 kts | 189° |
| 2026-05-08 02:08 | 1.65193 | 104.06552 | 4005 ft | 269 kts | 189° |
| 2026-05-08 02:09 | 1.63385 | 104.06242 | 3699 ft | 267 kts | 189° |
| 2026-05-08 02:09 | 1.61534 | 104.05926 | 3402 ft | 266 kts | 189° |
| 2026-05-08 02:09 | 1.59716 | 104.05615 | 3095 ft | 265 kts | 189° |
| 2026-05-08 02:09 | 1.57926 | 104.05309 | 2832 ft | 261 kts | 189° |
| 2026-05-08 02:10 | 1.56183 | 104.05011 | 2739 ft | 247 kts | 189° |
| 2026-05-08 02:10 | 1.54534 | 104.04729 | 2640 ft | 234 kts | 189° |
| 2026-05-08 02:10 | 1.52968 | 104.04461 | 2528 ft | 223 kts | 189° |
| 2026-05-08 02:10 | 1.51484 | 104.04207 | 2447 ft | 209 kts | 189° |
| 2026-05-08 02:11 | 1.50095 | 104.03968 | 2445 ft | 190 kts | 189° |
| 2026-05-08 02:11 | 1.48887 | 104.03620 | 2350 ft | 179 kts | 201° |
| 2026-05-08 02:11 | 1.47751 | 104.03147 | 2131 ft | 175 kts | 202° |
| 2026-05-08 02:11 | 1.46636 | 104.02693 | 1913 ft | 170 kts | 201° |
| 2026-05-08 02:12 | 1.45565 | 104.02264 | 1685 ft | 160 kts | 202° |
| 2026-05-08 02:12 | 1.44570 | 104.01837 | 1477 ft | 151 kts | 202° |
| 2026-05-08 02:12 | 1.43637 | 104.01441 | 1287 ft | 142 kts | 201° |
| 2026-05-08 02:12 | 1.42756 | 104.01070 | 1120 ft | 135 kts | 201° |
| 2026-05-08 02:13 | 1.41895 | 104.00706 | 947 ft | 135 kts | 202° |
| 2026-05-08 02:13 | 1.41029 | 104.00339 | 792 ft | 136 kts | 202° |
| 2026-05-08 02:13 | 1.40160 | 103.99963 | 626 ft | 137 kts | 202° |
| 2026-05-08 02:13 | 1.39284 | 103.99600 | 420 ft | 137 kts | 201° |
| 2026-05-08 02:14 | 1.38410 | 103.99227 | 238 ft | 136 kts | 200° |
| 2026-05-08 02:14 | 1.37538 | 103.98860 | 68 ft | 136 kts | 202° |
| 2026-05-08 02:14 | 1.36721 | 103.98516 | 37 ft | 110 kts | 202° |
| 2026-05-08 02:14 | 1.36176 | 103.98285 | 37 ft | 60 kts | 203° |
| 2026-05-08 02:15 | 1.35890 | 103.98165 | 37 ft | 31 kts | 202° |
| 2026-05-08 02:15 | 1.35732 | 103.98116 | 37 ft | 19 kts | 187° |
| 2026-05-08 02:15 | 1.35598 | 103.98116 | 37 ft | 20 kts | 170° |
| 2026-05-08 02:15 | 1.35542 | 103.98194 | 37 ft | 15 kts | 63° |
| 2026-05-08 02:16 | 1.35637 | 103.98253 | 37 ft | 17 kts | 22° |
| 2026-05-08 02:16 | 1.35757 | 103.98303 | 37 ft | 20 kts | 23° |
| 2026-05-08 02:16 | 1.35892 | 103.98360 | 37 ft | 22 kts | 23° |
| 2026-05-08 02:16 | 1.36042 | 103.98423 | 37 ft | 24 kts | 23° |
| 2026-05-08 02:17 | 1.36205 | 103.98491 | 37 ft | 26 kts | 22° |
| 2026-05-08 02:17 | 1.36380 | 103.98565 | 37 ft | 27 kts | 23° |
| 2026-05-08 02:17 | 1.36500 | 103.98616 | 37 ft | 19 kts | 22° |
| 2026-05-08 02:17 | 1.36629 | 103.98670 | 37 ft | 21 kts | 23° |
| 2026-05-08 02:18 | 1.36767 | 103.98728 | 37 ft | 17 kts | 22° |
| 2026-05-08 02:18 | 1.36836 | 103.98764 | 37 ft | 9 kts | 51° |
| 2026-05-08 02:18 | 1.36829 | 103.98820 | 37 ft | 9 kts | 110° |
| 2026-05-08 02:18 | 1.36801 | 103.98889 | 37 ft | 12 kts | 112° |
| 2026-05-08 02:19 | 1.36765 | 103.98975 | 37 ft | 15 kts | 112° |
| 2026-05-08 02:19 | 1.36722 | 103.99076 | 37 ft | 17 kts | 112° |
| 2026-05-08 02:19 | 1.36674 | 103.99191 | 37 ft | 19 kts | 112° |
| 2026-05-08 02:19 | 1.36620 | 103.99321 | 37 ft | 21 kts | 112° |
| 2026-05-08 02:20 | 1.36561 | 103.99462 | 37 ft | 23 kts | 112° |
| 2026-05-08 02:20 | 1.36506 | 103.99576 | 37 ft | 11 kts | 116° |
| 2026-05-08 02:20 | 1.36448 | 103.99605 | 37 ft | 10 kts | 191° |
| 2026-05-08 02:20 | 1.36379 | 103.99568 | 37 ft | 12 kts | 228° |
| 2026-05-08 02:21 | 1.36320 | 103.99493 | 37 ft | 15 kts | 232° |
| 2026-05-08 02:21 | 1.36240 | 103.99417 | 37 ft | 17 kts | 206° |
| 2026-05-08 02:21 | 1.36124 | 103.99368 | 37 ft | 19 kts | 202° |
| 2026-05-08 02:21 | 1.35995 | 103.99313 | 37 ft | 21 kts | 203° |
| 2026-05-08 02:22 | 1.35855 | 103.99254 | 37 ft | 23 kts | 202° |
| 2026-05-08 02:22 | 1.35747 | 103.99209 | 37 ft | 8 kts | 202° |
| 2026-05-08 02:22 | 1.35718 | 103.99176 | 37 ft | 6 kts | 268° |
| 2026-05-08 02:22 | 1.35731 | 103.99131 | 37 ft | 6 kts | 292° |
| 2026-05-08 02:23 | 1.35738 | 103.99116 | 37 ft | 0 kts | 292° |